Flight Track Log - Related Links

Times and Time Zones

All times are in EDT time to prevent confusion due to time zone crossing. See the RPA3436 flight status page for this flight to view local times or setup timezone preferences in your user account.

Time Position Orientation Groundspeed Altitude Reporting Facility
EDT Latitude Longitude Course Direction KTS MPH feet Rate Location/Type
Wed 10:15:10 AM 38.8000 -77.0333 57° Northeast 179 206 1,800  Level Potomac TRACON
Wed 10:16:16 AM 38.7500 -76.9833 142° Southeast 266 306 4,000 2,143 Climbing Potomac TRACON
Wed 10:17:00 AM 39.0061 -76.5878 57° Northeast  Level FlightAware Approximate
Wed 10:17:16 AM 38.8000 -76.9000 52° Northeast 304 350 6,300  Level Potomac TRACON
Wed 10:18:00 AM 39.0497 -76.4759 63° Northeast  Level FlightAware Approximate
Wed 10:18:11 AM 38.8500 -76.8167 52° Northeast 313 360 8,900  Level Potomac TRACON
Wed 10:19:00 AM 39.0958 -76.3654 61° Northeast  Level FlightAware Approximate
Wed 10:20:00 AM 39.1250 -76.2500 57° Northeast  Level FlightAware Approximate
Wed 10:21:32 AM 39.0142 -76.4892 57° Northeast 340 391 16,000  Level Washington Center
Wed 10:22:33 AM 39.0669 -76.3856 57° Northeast 345 397 17,000 1,160 Climbing Washington Center
Wed 10:23:31 AM 39.1239 -76.2844 54° Northeast 345 397 18,300 1,068 Climbing Washington Center
Wed 10:24:31 AM 39.1600 -76.1617 69° East 345 397 19,100 942 Climbing Washington Center
Wed 10:25:32 AM 39.1772 -76.0172 81° East 366 421 20,200 1,230 Climbing Washington Center
Wed 10:26:33 AM 39.2028 -75.8728 77° East 391 450 21,600 1,311 Climbing Washington Center
Wed 10:27:31 AM 39.2800 -75.7631 48° Northeast 391 450 22,800 1,261 Climbing Washington Center
Wed 10:28:32 AM 39.3656 -75.6561 44° Northeast 401 461 24,100 1,525 Climbing Washington Center
Wed 10:30:28 AM 39.5308 -75.4492 44° Northeast 407 468 27,300 1,492 Climbing New York Center
Wed 10:31:29 AM 39.6122 -75.3386 46° Northeast 413 475 28,500 857 Climbing New York Center
Wed 10:32:27 AM 39.6958 -75.2253 46° Northeast 424 488 29,000 252 Climbing New York Center
Wed 10:33:28 AM 39.7667 -75.1164 50° Northeast 424 488 29,000  Level New York Center
Wed 10:34:29 AM 39.8478 -75.0050 46° Northeast 424 488 29,000  Level New York Center
Wed 10:35:29 AM 39.9269 -74.8908 48° Northeast 424 488 29,000  Level New York Center
Wed 10:36:27 AM 40.0147 -74.7658 47° Northeast 425 489 29,000  Level New York Center
Wed 10:37:29 AM 40.0956 -74.6483 48° Northeast 425 489 29,000  Level New York Center
Wed 10:38:29 AM 40.1742 -74.5386 47° Northeast 425 489 29,000  Level New York Center
Wed 10:39:29 AM 40.2567 -74.4397 42° Northeast 430 495 29,000  Level New York Center
Wed 10:40:28 AM 40.3450 -74.3411 40° Northeast 425 489 29,000  Level New York Center
Wed 10:41:28 AM 40.4375 -74.2450 38° Northeast 420 483 29,000  Level New York Center
Wed 10:42:28 AM 40.5300 -74.1458 39° Northeast 420 483 29,000 -403 Level New York Center
Wed 10:43:27 AM 40.6289 -74.0361 40° Northeast 420 483 28,200 -1,554 Descending New York Center
Wed 10:45:41 AM 40.8289 -73.8253 39° Northeast 403 464 24,000 -1,252 Descending Boston Center
Wed 10:46:53 AM 40.9261 -73.7008 44° Northeast 403 464 23,900 -455 Descending Boston Center
Wed 10:47:53 AM 41.0106 -73.6008 42° Northeast 403 464 23,000 -450 Descending Boston Center
Wed 10:48:53 AM 41.0928 -73.4978 43° Northeast 398 458 23,000 -500 Level Boston Center
Wed 10:49:53 AM 41.1750 -73.3942 43° Northeast 398 458 22,000 -1,100 Descending Boston Center
Wed 10:50:53 AM 41.2611 -73.3128 35° Northeast 392 451 20,800 -1,400 Descending Boston Center
Wed 10:51:53 AM 41.3675 -73.3114 North 365 420 19,200 -1,400 Descending Boston Center
Wed 10:52:53 AM 41.4631 -73.3403 347° North 395 455 18,000 -600 Descending Boston Center
Wed 10:53:53 AM 41.5608 -73.3694 347° North 358 412 18,000  Level Boston Center
Wed 10:54:53 AM 41.6503 -73.3931 349° North 358 412 18,000  Level Boston Center
Wed 10:55:53 AM 41.7583 -73.4253 347° North 358 412 18,000 -750 Level Boston Center
Wed 10:56:53 AM 41.8478 -73.4517 348° North 358 412 16,500 -1,761 Descending Boston Center
Wed 10:57:25 AM 41.9017 -73.4667 348° North 366 421 15,300 -2,175 Descending Boston Center
Wed 10:58:13 AM 41.9828 -73.4931 346° North 344 396 13,600 -2,045 Descending Boston Center
Wed 10:58:53 AM 42.0328 -73.5050 350° North 344 396 12,300 -1,560 Descending Boston Center
Wed 10:59:53 AM 42.1222 -73.5261 350° North 334 384 11,000 -650 Descending Boston Center
Wed 11:00:53 AM 42.2158 -73.5417 353° North 334 384 11,000 -600 Level Boston Center
Wed 11:01:53 AM 42.2989 -73.5600 351° North 322 371 9,800 -1,600 Descending Boston Center
Wed 11:02:53 AM 42.3781 -73.5756 352° North 296 341 7,800 -1,750 Descending Boston Center
Wed 11:03:53 AM 42.4425 -73.5908 350° North 291 335 6,300 -1,727 Descending Boston Center
Wed 11:05:05 AM 42.5631 -73.6211 350° North 291 335 4,000 -1,000 Descending Boston Center
Wed 11:06:05 AM 42.6400 -73.6425 348° North 286 329 4,100 -52 Climbing Boston Center
Wed 11:07:01 AM 42.7106 -73.6636 348° North 285 328 3,900 -537 Descending Boston Center
Wed 11:08:08 AM 42.7917 -73.6850 349° North 250 288 3,000 -435 Descending Boston Center
Wed 11:09:05 AM 42.8497 -73.7031 347° North 234 269 3,000 -462 Level Boston Center
Wed 11:10:05 AM 42.9100 -73.7186 349° North 228 262 2,100 -450 Descending Boston Center
Wed 11:11:05 AM 42.9197 -73.7783 283° West 162 186 2,100 -50 Level Boston Center
Wed 11:12:05 AM 42.8736 -73.8083 205° Southwest 140 161 2,000 -100 Descending Boston Center

Login

Don't have an account? Register now (free) for customized features, flight alerts, and more!